createdAt,value
2023-05-08T00:00:48.353Z,4.43
2023-05-08T00:03:14.780Z,4.72
2023-05-08T00:05:41.664Z,4.82
2023-05-08T00:08:07.993Z,4.10
2023-05-08T00:10:34.434Z,4.38
2023-05-08T00:13:00.784Z,4.32
2023-05-08T00:15:27.154Z,5.22
2023-05-08T00:17:53.527Z,4.80
2023-05-08T00:20:19.970Z,4.57
2023-05-08T00:22:46.308Z,5.40
2023-05-08T00:25:12.689Z,4.75
2023-05-08T00:27:39.054Z,5.03
2023-05-08T00:30:06.974Z,5.03
2023-05-08T00:32:33.443Z,5.55
2023-05-08T00:34:59.818Z,5.13
2023-05-08T00:37:26.319Z,4.72
2023-05-08T00:39:52.644Z,4.75
2023-05-08T00:42:18.972Z,4.60
2023-05-08T00:44:45.690Z,4.55
2023-05-08T00:47:12.227Z,4.40
2023-05-08T00:49:38.647Z,4.75
2023-05-08T00:52:08.675Z,5.05
2023-05-08T00:54:38.284Z,5.30
2023-05-08T00:57:06.844Z,5.50
2023-05-08T00:59:33.771Z,4.88
2023-05-08T01:02:00.892Z,5.20
2023-05-08T01:04:27.753Z,5.10
2023-05-08T01:06:54.103Z,4.97
2023-05-08T01:09:20.521Z,5.60
2023-05-08T01:11:46.824Z,6.28
2023-05-08T01:14:15.985Z,6.07
2023-05-08T01:16:49.957Z,5.93
2023-05-08T01:19:35.111Z,6.60
2023-05-08T01:22:18.232Z,6.68
2023-05-08T01:25:00.365Z,6.00
2023-05-08T01:27:26.689Z,6.38
2023-05-08T01:29:56.108Z,6.05
2023-05-08T01:32:24.966Z,6.78
2023-05-08T01:34:56.383Z,5.75
2023-05-08T01:37:35.965Z,5.80
2023-05-08T01:40:02.311Z,6.63
2023-05-08T01:42:28.635Z,6.70
2023-05-08T01:44:57.603Z,7.00
2023-05-08T01:47:25.926Z,6.43
2023-05-08T01:50:18.522Z,6.03
2023-05-08T01:53:05.552Z,6.45
2023-05-08T01:55:34.748Z,6.82
2023-05-08T01:58:01.844Z,6.15
2023-05-08T02:00:28.574Z,6.00
2023-05-08T02:02:55.818Z,5.70
2023-05-08T02:05:23.602Z,6.07
2023-05-08T02:07:50.500Z,5.88
2023-05-08T02:10:17.401Z,6.23
2023-05-08T02:12:44.470Z,6.23
2023-05-08T02:15:12.919Z,5.75
2023-05-08T02:17:40.587Z,5.75
2023-05-08T02:20:07.762Z,5.90
2023-05-08T02:22:34.833Z,5.65
2023-05-08T02:25:01.190Z,5.55
2023-05-08T02:27:28.991Z,5.93
2023-05-08T02:32:22.762Z,6.25
2023-05-08T02:35:02.034Z,5.68
2023-05-08T02:37:30.241Z,6.22
2023-05-08T02:39:57.775Z,5.60
2023-05-08T02:42:24.176Z,5.78
2023-05-08T02:44:50.561Z,5.50
2023-05-08T02:47:25.852Z,6.63
2023-05-08T02:49:54.977Z,5.85
2023-05-08T02:52:24.315Z,6.00
2023-05-08T02:54:50.639Z,5.80
2023-05-08T02:57:28.797Z,6.10
2023-05-08T03:00:00.788Z,6.32
2023-05-08T03:02:36.415Z,5.53
2023-05-08T03:05:05.328Z,5.47
2023-05-08T03:07:32.840Z,4.88
2023-05-08T03:10:02.524Z,5.13
2023-05-08T03:12:31.079Z,5.00
2023-05-08T03:15:00.760Z,4.72
2023-05-08T03:17:28.887Z,5.30
2023-05-08T03:19:57.267Z,5.05
2023-05-08T03:25:46.165Z,4.38
2023-05-08T03:28:13.049Z,4.70
2023-05-08T03:30:40.572Z,5.10
2023-05-08T03:33:07.767Z,5.28
2023-05-08T03:35:37.835Z,5.47
2023-05-08T03:38:04.667Z,5.35
2023-05-08T03:40:31.122Z,5.70
2023-05-08T03:42:58.312Z,5.70
2023-05-08T03:45:24.940Z,6.55
2023-05-08T03:47:53.667Z,5.95
2023-05-08T03:50:20.184Z,6.18
2023-05-08T03:52:46.551Z,5.85
2023-05-08T03:55:13.421Z,5.85
2023-05-08T03:57:49.099Z,6.00
2023-05-08T04:00:33.584Z,6.30
2023-05-08T04:03:18.949Z,6.80
2023-05-08T04:05:55.563Z,6.97
2023-05-08T04:08:42.143Z,7.60
2023-05-08T04:11:08.479Z,8.00
2023-05-08T04:13:37.977Z,7.70
2023-05-08T04:16:06.917Z,8.40
2023-05-08T04:18:36.589Z,8.70
2023-05-08T04:21:03.371Z,8.57
2023-05-08T04:23:29.831Z,10.15
2023-05-08T04:25:56.636Z,9.57
2023-05-08T04:28:23.388Z,10.48
2023-05-08T04:30:50.282Z,11.18
2023-05-08T04:33:18.577Z,10.67
2023-05-08T04:35:46.178Z,11.52
2023-05-08T04:38:12.631Z,11.68
2023-05-08T04:40:39.003Z,12.55
2023-05-08T04:43:05.485Z,12.20
2023-05-08T04:45:31.840Z,12.00
2023-05-08T04:47:58.336Z,11.93
2023-05-08T04:50:24.848Z,11.95
2023-05-08T04:52:51.222Z,12.18
2023-05-08T04:55:17.905Z,11.57
2023-05-08T04:57:44.560Z,11.40
2023-05-08T05:00:11.202Z,12.02
2023-05-08T05:02:37.748Z,11.30
2023-05-08T05:05:04.458Z,10.25
2023-05-08T05:07:30.882Z,11.55
2023-05-08T05:09:57.225Z,12.40
2023-05-08T05:12:23.571Z,12.45
2023-05-08T05:14:49.911Z,13.07
2023-05-08T05:17:16.334Z,14.27
2023-05-08T05:19:42.661Z,13.10
2023-05-08T05:22:08.989Z,13.57
2023-05-08T05:24:36.132Z,17.08
2023-05-08T05:27:02.778Z,17.60
2023-05-08T05:29:29.120Z,16.33
2023-05-08T05:31:55.604Z,15.20
2023-05-08T05:34:22.118Z,15.45
2023-05-08T05:36:48.452Z,15.05
2023-05-08T05:39:14.856Z,17.02
2023-05-08T05:41:44.194Z,16.95
2023-05-08T05:44:11.286Z,17.20
2023-05-08T05:46:37.675Z,17.58
2023-05-08T05:49:04.083Z,15.50
2023-05-08T05:51:30.491Z,17.98
2023-05-08T05:53:57.221Z,12.73
2023-05-08T05:56:23.553Z,15.75
2023-05-08T05:58:49.904Z,15.52
2023-05-08T06:01:16.306Z,15.93
2023-05-08T06:03:42.760Z,15.02
2023-05-08T06:06:09.322Z,12.60
2023-05-08T06:08:35.681Z,14.20
2023-05-08T06:11:02.249Z,13.40
2023-05-08T06:13:28.757Z,14.75
2023-05-08T06:15:58.586Z,12.18
2023-05-08T06:18:25.137Z,12.82
2023-05-08T06:20:58.186Z,10.70
2023-05-08T06:23:24.810Z,10.98
2023-05-08T06:25:51.218Z,10.85
2023-05-08T06:28:17.557Z,9.77
2023-05-08T06:30:43.938Z,9.07
2023-05-08T06:33:11.212Z,6.93
2023-05-08T06:35:37.571Z,7.13
2023-05-08T06:38:03.956Z,7.93
2023-05-08T06:40:30.344Z,6.72
2023-05-08T06:42:56.657Z,5.88
2023-05-08T06:45:23.099Z,5.70
2023-05-08T06:47:49.466Z,5.00
2023-05-08T06:50:15.836Z,3.60
2023-05-08T06:52:42.460Z,3.42
2023-05-08T06:55:09.254Z,3.10
2023-05-08T06:57:35.787Z,2.75
2023-05-08T07:00:02.149Z,3.17
2023-05-08T07:02:28.528Z,3.10
2023-05-08T07:04:54.914Z,3.38
2023-05-08T07:07:21.311Z,3.38
2023-05-08T07:09:47.657Z,3.50
2023-05-08T07:12:16.533Z,3.70
2023-05-08T07:14:43.607Z,3.63
2023-05-08T07:17:09.958Z,2.63
2023-05-08T07:19:36.633Z,3.15
2023-05-08T07:22:05.597Z,3.40
2023-05-08T07:24:32.574Z,2.80
2023-05-08T07:27:01.830Z,2.60
2023-05-08T07:29:28.272Z,2.50
2023-05-08T07:31:54.649Z,2.00
2023-05-08T07:34:21.242Z,1.67
2023-05-08T07:36:47.661Z,1.75
2023-05-08T07:39:13.979Z,1.90
2023-05-08T07:41:41.153Z,1.85
2023-05-08T07:44:07.918Z,1.77
2023-05-08T07:46:34.367Z,2.25
2023-05-08T07:49:00.915Z,2.08
2023-05-08T07:51:27.721Z,1.80
2023-05-08T07:53:55.127Z,1.55
2023-05-08T07:56:23.008Z,1.48
2023-05-08T07:58:49.430Z,1.70
2023-05-08T08:01:17.856Z,1.90
2023-05-08T08:03:45.045Z,1.55
2023-05-08T08:06:11.668Z,1.40
2023-05-08T08:08:38.075Z,1.20
2023-05-08T08:11:04.543Z,1.10
2023-05-08T08:13:31.370Z,1.30
2023-05-08T08:15:57.954Z,1.20
2023-05-08T08:18:24.280Z,0.90
2023-05-08T08:20:50.665Z,1.10
2023-05-08T08:23:17.128Z,0.93
2023-05-08T08:25:43.480Z,1.00
2023-05-08T08:28:09.842Z,1.02
2023-05-08T08:30:36.185Z,1.10
2023-05-08T08:33:03.352Z,1.20
2023-05-08T08:35:30.242Z,0.80
2023-05-08T08:37:57.054Z,1.10
2023-05-08T08:40:23.569Z,1.20
2023-05-08T08:42:50.037Z,1.10
2023-05-08T08:45:16.771Z,0.80
2023-05-08T08:47:44.585Z,0.63
2023-05-08T08:50:14.645Z,0.85
2023-05-08T08:52:50.788Z,0.85
2023-05-08T08:55:18.030Z,0.90
2023-05-08T08:58:04.646Z,1.23
2023-05-08T09:00:32.554Z,1.20
2023-05-08T09:02:59.454Z,1.05
2023-05-08T09:05:26.566Z,1.17
2023-05-08T09:07:56.248Z,1.02
2023-05-08T09:10:23.781Z,1.00
2023-05-08T09:12:50.281Z,0.98
2023-05-08T09:15:17.021Z,1.13
2023-05-08T09:17:43.481Z,1.20
2023-05-08T09:20:10.331Z,1.10
2023-05-08T09:22:36.764Z,1.10
2023-05-08T09:25:03.422Z,0.75
2023-05-08T09:27:30.734Z,1.00
2023-05-08T09:30:02.948Z,0.70
2023-05-08T09:32:30.052Z,0.77
2023-05-08T09:34:56.932Z,0.50
2023-05-08T09:37:23.393Z,0.70
2023-05-08T09:39:49.982Z,0.70
2023-05-08T09:42:16.347Z,0.63
2023-05-08T09:44:49.630Z,0.80
2023-05-08T09:47:17.193Z,0.70
2023-05-08T09:49:56.718Z,0.60
2023-05-08T09:52:23.634Z,0.70
2023-05-08T09:54:59.741Z,0.70
2023-05-08T09:57:26.866Z,1.00
2023-05-08T10:00:00.634Z,0.70
2023-05-08T10:02:27.070Z,0.80
2023-05-08T10:07:27.657Z,0.77
2023-05-08T10:10:01.468Z,1.00
2023-05-08T10:12:28.351Z,0.90
2023-05-08T10:14:55.286Z,1.13
2023-05-08T10:17:41.624Z,1.00
2023-05-08T10:20:08.245Z,0.98
2023-05-08T10:22:37.932Z,0.93
2023-05-08T10:25:07.874Z,0.80
2023-05-08T10:27:34.218Z,0.80
2023-05-08T10:30:04.269Z,0.90
2023-05-08T10:32:33.612Z,1.05
2023-05-08T10:35:00.329Z,0.80
2023-05-08T10:37:29.008Z,0.70
2023-05-08T10:39:57.261Z,0.80
2023-05-08T10:42:57.836Z,1.00
2023-05-08T10:45:24.318Z,0.90
2023-05-08T10:47:59.125Z,1.30
2023-05-08T10:50:25.525Z,1.00
2023-05-08T10:52:54.069Z,1.20
2023-05-08T10:55:24.043Z,1.00
2023-05-08T10:58:06.991Z,1.30
2023-05-08T11:00:53.309Z,1.40
2023-05-08T11:06:45.925Z,1.48
2023-05-08T11:09:44.575Z,1.52
2023-05-08T11:12:10.884Z,1.70
2023-05-08T11:14:39.305Z,1.88
2023-05-08T11:17:05.995Z,1.80
2023-05-08T11:19:32.438Z,1.90
2023-05-08T11:22:11.230Z,1.98
2023-05-08T11:24:38.399Z,2.05
2023-05-08T11:27:04.770Z,1.52
2023-05-08T11:29:31.209Z,1.40
2023-05-08T11:31:57.626Z,1.60
2023-05-08T11:34:42.562Z,1.50
2023-05-08T11:37:16.477Z,1.15
2023-05-08T11:39:42.948Z,1.10
2023-05-08T11:42:27.484Z,1.20
2023-05-08T11:45:09.772Z,0.80
2023-05-08T11:47:43.018Z,1.15
2023-05-08T11:50:10.197Z,0.90
2023-05-08T11:52:37.171Z,0.90
2023-05-08T11:55:04.578Z,1.05
2023-05-08T11:57:31.230Z,1.27
2023-05-08T11:59:57.540Z,1.10
2023-05-08T12:02:39.819Z,1.17
2023-05-08T12:05:06.923Z,1.10
2023-05-08T12:07:33.369Z,1.20
2023-05-08T12:10:02.898Z,1.00
2023-05-08T12:12:42.932Z,0.80
2023-05-08T12:15:10.391Z,0.70
2023-05-08T12:17:37.992Z,0.70
2023-05-08T12:22:30.870Z,0.77
2023-05-08T12:24:57.288Z,0.63
2023-05-08T12:27:24.705Z,0.65
2023-05-08T12:29:51.037Z,0.60
2023-05-08T12:32:17.371Z,0.70
2023-05-08T12:34:43.772Z,0.73
2023-05-08T12:37:10.220Z,0.80
2023-05-08T12:39:37.587Z,1.00
2023-05-08T12:44:30.304Z,0.70
2023-05-08T12:46:57.257Z,0.70
2023-05-08T12:49:28.699Z,0.77
2023-05-08T12:52:05.676Z,0.82
2023-05-08T12:54:36.180Z,1.08
2023-05-08T12:57:06.832Z,0.73
2023-05-08T12:59:33.460Z,0.68
2023-05-08T13:01:59.850Z,0.60
2023-05-08T13:04:26.493Z,0.60
2023-05-08T13:06:58.782Z,0.70
2023-05-08T13:09:25.144Z,0.80
2023-05-08T13:11:51.490Z,0.80
2023-05-08T13:14:17.851Z,0.70
2023-05-08T13:16:45.120Z,0.90
2023-05-08T13:19:11.654Z,0.98
2023-05-08T13:21:38.583Z,0.88
2023-05-08T13:24:05.020Z,1.02
2023-05-08T13:26:31.409Z,1.30
2023-05-08T13:28:57.724Z,0.95
2023-05-08T13:31:24.370Z,0.95
2023-05-08T13:33:50.755Z,1.00
2023-05-08T13:36:17.087Z,0.73
2023-05-08T13:38:43.471Z,0.75
2023-05-08T13:41:09.805Z,0.68
2023-05-08T13:43:36.863Z,0.70
2023-05-08T13:46:04.765Z,1.10
2023-05-08T13:48:32.538Z,0.60
2023-05-08T13:50:58.845Z,0.73
2023-05-08T13:53:25.165Z,0.60
2023-05-08T13:55:51.563Z,0.50
2023-05-08T13:58:17.886Z,0.60
2023-05-08T14:00:45.401Z,0.60
2023-05-08T14:05:38.057Z,0.40
2023-05-08T14:08:04.522Z,0.50
2023-05-08T14:10:31.012Z,0.60
2023-05-08T14:12:57.374Z,0.60
2023-05-08T14:15:27.016Z,0.60
2023-05-08T14:20:27.379Z,0.90
2023-05-08T14:22:54.066Z,1.50
2023-05-08T14:25:20.506Z,1.73
2023-05-08T14:27:46.874Z,2.30
2023-05-08T14:30:15.215Z,2.05
2023-05-08T14:32:41.805Z,2.50
2023-05-08T14:35:10.259Z,2.60
2023-05-08T14:37:36.636Z,2.70
2023-05-08T14:40:03.031Z,3.15
2023-05-08T14:42:29.380Z,3.13
2023-05-08T14:44:56.266Z,3.30
2023-05-08T14:47:23.495Z,3.42
2023-05-08T14:49:49.901Z,3.95
2023-05-08T14:52:16.310Z,4.20
2023-05-08T14:54:43.394Z,3.88
2023-05-08T14:57:09.978Z,4.50
2023-05-08T14:59:36.362Z,4.10
2023-05-08T15:02:02.785Z,3.65
2023-05-08T15:04:29.229Z,4.15
2023-05-08T15:06:55.573Z,3.72
2023-05-08T15:09:21.944Z,4.07
2023-05-08T15:11:48.382Z,4.20
2023-05-08T15:14:14.722Z,4.03
2023-05-08T15:16:41.152Z,4.50
2023-05-08T15:19:09.334Z,4.35
2023-05-08T15:21:35.702Z,4.13
2023-05-08T15:24:02.053Z,4.10
2023-05-08T15:26:28.396Z,4.13
2023-05-08T15:28:54.731Z,3.42
2023-05-08T15:31:21.780Z,3.70
2023-05-08T15:33:48.379Z,3.97
2023-05-08T15:36:15.014Z,4.40
2023-05-08T15:38:41.584Z,4.43
2023-05-08T15:41:12.125Z,4.22
2023-05-08T15:43:39.332Z,4.43
2023-05-08T15:46:05.821Z,4.03
2023-05-08T15:48:32.482Z,4.28
2023-05-08T15:50:58.830Z,4.50
2023-05-08T15:53:25.189Z,4.78
2023-05-08T15:55:51.525Z,4.40
2023-05-08T15:58:17.950Z,4.45
2023-05-08T16:00:45.545Z,4.68
2023-05-08T16:03:12.290Z,4.75
2023-05-08T16:05:39.531Z,4.13
2023-05-08T16:08:06.019Z,4.38
2023-05-08T16:10:32.366Z,2.80
2023-05-08T16:12:58.782Z,1.92
2023-05-08T16:15:25.202Z,2.00
2023-05-08T16:17:51.584Z,1.88
2023-05-08T16:20:17.907Z,1.55
2023-05-08T16:22:44.342Z,1.40
2023-05-08T16:25:10.778Z,1.23
2023-05-08T16:27:37.301Z,1.05
2023-05-08T16:30:03.868Z,0.80
2023-05-08T16:32:30.825Z,0.90
2023-05-08T16:34:57.224Z,0.77
2023-05-08T16:37:23.623Z,1.13
2023-05-08T16:39:49.980Z,1.00
2023-05-08T16:42:18.682Z,0.70
2023-05-08T16:44:45.161Z,0.65
2023-05-08T16:47:11.552Z,1.00
2023-05-08T16:49:37.949Z,1.05
2023-05-08T16:52:04.451Z,1.77
2023-05-08T16:54:30.779Z,1.52
2023-05-08T16:56:57.189Z,1.33
2023-05-08T16:59:23.520Z,1.40
2023-05-08T17:01:49.925Z,1.48
2023-05-08T17:04:16.293Z,1.15
2023-05-08T17:06:42.630Z,1.45
2023-05-08T17:09:09.008Z,1.38
2023-05-08T17:11:35.356Z,1.40
2023-05-08T17:14:01.843Z,1.40
2023-05-08T17:16:28.299Z,1.73
2023-05-08T17:18:54.692Z,1.55
2023-05-08T17:21:21.023Z,1.25
2023-05-08T17:23:47.380Z,2.45
2023-05-08T17:26:13.762Z,1.65
2023-05-08T17:28:40.388Z,1.63
2023-05-08T17:31:06.959Z,2.42
2023-05-08T17:33:33.585Z,3.05
2023-05-08T17:36:00.783Z,2.28
2023-05-08T17:38:27.221Z,1.75
2023-05-08T17:40:53.624Z,1.50
2023-05-08T17:43:20.811Z,1.05
2023-05-08T17:45:47.413Z,1.83
2023-05-08T17:48:14.138Z,1.08
2023-05-08T17:50:42.197Z,0.40
2023-05-08T17:53:08.545Z,0.77
2023-05-08T17:55:35.026Z,1.27
2023-05-08T17:58:01.459Z,0.60
2023-05-08T18:00:27.852Z,0.88
2023-05-08T18:02:54.366Z,1.42
2023-05-08T18:05:20.880Z,0.70
2023-05-08T18:07:47.204Z,1.48
2023-05-08T18:13:41.363Z,0.70
2023-05-08T18:16:07.749Z,1.25
2023-05-08T18:18:34.117Z,0.85
2023-05-08T18:21:00.464Z,1.50
2023-05-08T18:23:27.063Z,1.10
2023-05-08T18:25:53.453Z,0.93
2023-05-08T18:28:19.830Z,0.90
2023-05-08T18:30:46.353Z,1.33
2023-05-08T18:33:12.687Z,1.17
2023-05-08T18:35:39.030Z,1.02
2023-05-08T18:38:05.360Z,1.92
2023-05-08T18:40:31.755Z,1.40
2023-05-08T18:42:58.244Z,1.60
2023-05-08T18:45:24.700Z,1.65
2023-05-08T18:47:53.066Z,6.97
2023-05-08T18:50:19.735Z,2.35
2023-05-08T18:52:46.093Z,7.45
2023-05-08T18:55:12.499Z,2.90
2023-05-08T18:57:38.978Z,3.03
2023-05-08T19:00:05.754Z,2.95
2023-05-08T19:02:32.146Z,2.97
2023-05-08T19:04:58.896Z,3.00
2023-05-08T19:07:25.258Z,3.60
2023-05-08T19:09:51.703Z,3.30
2023-05-08T19:12:18.074Z,5.82
2023-05-08T19:14:44.489Z,2.45
2023-05-08T19:17:10.897Z,1.77
2023-05-08T19:19:37.236Z,1.80
2023-05-08T19:22:03.593Z,1.10
2023-05-08T19:24:30.819Z,1.20
2023-05-08T19:26:59.110Z,0.90
2023-05-08T19:29:25.665Z,0.90
2023-05-08T19:31:52.378Z,1.42
2023-05-08T19:34:18.846Z,1.50
2023-05-08T19:36:45.198Z,1.20
2023-05-08T19:39:11.630Z,1.40
2023-05-08T19:41:38.004Z,2.25
2023-05-08T19:44:04.403Z,2.88
2023-05-08T19:46:30.891Z,1.90
2023-05-08T19:48:57.325Z,2.67
2023-05-08T19:51:23.776Z,2.05
2023-05-08T19:53:50.105Z,2.50
2023-05-08T19:56:16.485Z,1.60
2023-05-08T19:58:42.926Z,1.58
2023-05-08T20:01:09.320Z,1.70
2023-05-08T20:03:35.996Z,1.83
2023-05-08T20:06:02.438Z,1.75
2023-05-08T20:08:28.796Z,1.67
2023-05-08T20:10:55.204Z,1.58
2023-05-08T20:13:21.698Z,1.90
2023-05-08T20:15:48.202Z,2.25
2023-05-08T20:18:14.649Z,2.20
2023-05-08T20:20:41.015Z,2.70
2023-05-08T20:23:07.431Z,3.05
2023-05-08T20:25:33.849Z,3.40
2023-05-08T20:28:00.372Z,2.70
2023-05-08T20:30:26.832Z,2.35
2023-05-08T20:32:53.271Z,3.30
2023-05-08T20:35:19.708Z,1.85
2023-05-08T20:37:47.027Z,2.75
2023-05-08T20:40:14.428Z,1.98
2023-05-08T20:45:10.695Z,2.85
2023-05-08T20:47:37.206Z,3.63
2023-05-08T20:50:03.816Z,4.25
2023-05-08T20:52:32.235Z,4.10
2023-05-08T20:54:58.845Z,4.20
2023-05-08T20:57:25.523Z,4.78
2023-05-08T20:59:51.868Z,4.57
2023-05-08T21:02:18.210Z,4.97
2023-05-08T21:04:44.624Z,4.97
2023-05-08T21:07:11.113Z,5.53
2023-05-08T21:09:37.535Z,5.47
2023-05-08T21:12:03.984Z,5.30
2023-05-08T21:14:30.315Z,6.15
2023-05-08T21:16:56.863Z,5.82
2023-05-08T21:19:23.754Z,5.50
2023-05-08T21:21:50.138Z,7.40
2023-05-08T21:24:16.513Z,7.25
2023-05-08T21:26:42.868Z,8.02
2023-05-08T21:29:10.774Z,6.97
2023-05-08T21:31:37.306Z,8.95
2023-05-08T21:34:03.984Z,11.02
2023-05-08T21:36:30.322Z,37.88
2023-05-08T21:38:56.654Z,31.05
2023-05-08T21:41:23.034Z,19.30
2023-05-08T21:43:49.455Z,15.52
2023-05-08T21:46:15.836Z,26.30
2023-05-08T21:48:42.152Z,19.05
2023-05-08T21:54:30.432Z,11.85
2023-05-08T21:56:56.739Z,12.57
2023-05-08T21:59:23.143Z,14.10
2023-05-08T22:01:49.629Z,14.55
2023-05-08T22:04:16.089Z,14.43
2023-05-08T22:06:43.311Z,16.17
2023-05-08T22:09:09.729Z,11.57
2023-05-08T22:11:36.125Z,14.88
2023-05-08T22:17:23.961Z,14.15
2023-05-08T22:19:50.337Z,14.60
2023-05-08T22:22:50.635Z,15.00
2023-05-08T22:25:17.064Z,15.85
2023-05-08T22:27:43.410Z,15.38
2023-05-08T22:30:09.858Z,13.00
2023-05-08T22:32:36.643Z,33.05
2023-05-08T22:35:03.102Z,21.33
2023-05-08T22:37:30.419Z,17.60
2023-05-08T22:39:59.619Z,14.93
2023-05-08T22:42:26.083Z,11.98
2023-05-08T22:44:52.560Z,11.23
2023-05-08T22:47:19.076Z,10.63
2023-05-08T22:49:46.408Z,12.48
2023-05-08T22:52:12.794Z,12.25
2023-05-08T22:54:39.316Z,9.77
2023-05-08T22:57:43.910Z,12.00
2023-05-08T23:00:10.551Z,10.48
2023-05-08T23:02:37.020Z,13.43
2023-05-08T23:10:56.451Z,20.33
2023-05-08T23:13:22.989Z,15.52
2023-05-08T23:15:49.384Z,15.43
2023-05-08T23:18:15.696Z,17.73
2023-05-08T23:20:42.017Z,23.77
2023-05-08T23:23:08.400Z,37.42
2023-05-08T23:25:34.726Z,35.42
2023-05-08T23:28:01.044Z,30.15
2023-05-08T23:30:27.404Z,25.83
2023-05-08T23:32:53.749Z,36.35
2023-05-08T23:35:20.499Z,29.38
2023-05-08T23:37:47.155Z,26.27
2023-05-08T23:40:13.522Z,20.52
2023-05-08T23:46:02.917Z,17.17
2023-05-08T23:48:29.347Z,16.02
2023-05-08T23:50:55.672Z,14.43
2023-05-08T23:56:50.621Z,8.02
2023-05-08T23:59:16.969Z,7.00
